Time;durP1;ratioP1;P1;durP2;ratioP2;P2;SDS_P1;SDS_P2;PMS_P1;PMS_P2;Temp;Humidity;BMP_temperature;BMP_pressure;BME280_temperature;BME280_humidity;BME280_pressure;Samples;Min_cycle;Max_cycle;Signal;HPM_P1;HPM_P2
2022/05/05 00:01:49;;;;;;;4.43;2.92;;;7.50;99.90;;;;;;6199070;22;20085;-91
2022/05/05 00:04:15;;;;;;;6.10;3.20;;;7.50;99.90;;;;;;6248810;22;20047;-91
2022/05/05 00:06:41;;;;;;;5.60;2.73;;;7.50;99.90;;;;;;6248902;22;20069;-91
2022/05/05 00:09:20;;;;;;;5.73;3.73;;;7.40;99.90;;;;;;6248766;22;20391;-91
2022/05/05 00:14:33;;;;;;;5.70;3.17;;;7.40;99.90;;;;;;6248383;22;20058;-90
2022/05/05 00:17:10;;;;;;;3.20;2.47;;;7.40;99.90;;;;;;6223611;22;20016;-91
2022/05/05 00:19:43;;;;;;;4.88;3.17;;;7.50;99.90;;;;;;6248501;22;20074;-90
2022/05/05 00:22:23;;;;;;;8.30;2.83;;;7.40;99.90;;;;;;6223862;22;20012;-90
2022/05/05 00:24:59;;;;;;;5.22;2.67;;;7.40;99.90;;;;;;6247947;22;20012;-90
2022/05/05 00:27:30;;;;;;;11.07;3.00;;;7.30;99.90;;;;;;6248486;22;20015;-90
2022/05/05 00:29:59;;;;;;;9.00;3.13;;;7.30;99.90;;;;;;6223843;22;20023;-90
2022/05/05 00:32:30;;;;;;;7.32;2.75;;;7.70;99.90;;;;;;6223541;22;20016;-91
2022/05/05 00:34:58;;;;;;;4.13;2.63;;;7.20;99.90;;;;;;6223436;22;20024;-91
2022/05/05 00:37:31;;;;;;;3.78;3.28;;;7.80;99.90;;;;;;6223868;22;20462;-91
2022/05/05 00:39:57;;;;;;;6.47;3.17;;;7.20;99.90;;;;;;6223702;22;20018;-90
2022/05/05 00:42:25;;;;;;;3.50;2.97;;;7.30;99.90;;;;;;6222651;22;20015;-90
2022/05/05 00:44:51;;;;;;;8.00;3.40;;;7.20;99.90;;;;;;6198019;22;20102;-91
2022/05/05 00:47:22;;;;;;;3.43;3.00;;;7.10;99.90;;;;;;6223515;22;20073;-91
2022/05/05 00:49:49;;;;;;;9.57;3.35;;;7.30;99.90;;;;;;6222742;22;20062;-91
2022/05/05 00:52:15;;;;;;;3.47;2.92;;;7.30;99.90;;;;;;6222980;22;20070;-91
2022/05/05 00:54:41;;;;;;;7.70;2.90;;;7.20;99.90;;;;;;6248400;22;20020;-91
2022/05/05 00:57:16;;;;;;;4.03;2.60;;;7.30;99.90;;;;;;6223326;22;20110;-90
2022/05/05 00:59:47;;;;;;;4.43;3.35;;;7.40;99.90;;;;;;6223068;22;20254;-90
2022/05/05 01:02:13;;;;;;;2.72;2.38;;;7.20;99.90;;;;;;6223718;22;20020;-90
2022/05/05 01:04:46;;;;;;;6.57;2.80;;;7.20;99.90;;;;;;6222940;22;20095;-90
2022/05/05 01:07:21;;;;;;;4.20;2.63;;;6.40;99.90;;;;;;6199295;22;20016;-90
2022/05/05 01:09:52;;;;;;;3.25;2.78;;;7.30;99.90;;;;;;6222975;22;20016;-90
2022/05/05 01:12:28;;;;;;;;;;;;;;;;;;;;;
2022/05/05 01:14:54;;;;;;;2.90;2.60;;;7.20;99.90;;;;;;6247816;22;20012;-90
2022/05/05 01:17:21;;;;;;;6.10;2.90;;;7.30;99.90;;;;;;6223034;22;20054;-91
2022/05/05 01:19:49;;;;;;;4.90;3.63;;;7.20;99.90;;;;;;6222371;22;20042;-91
2022/05/05 01:22:18;;;;;;;4.03;3.23;;;8.30;99.90;;;;;;6223526;22;20038;-91
2022/05/05 01:30:34;;;;;;;4.00;2.53;;;7.90;99.90;;;;;;6206912;22;20052;-90
2022/05/05 01:33:02;;;;;;;4.70;3.10;;;7.20;99.90;;;;;;6247896;22;20102;-90
2022/05/05 01:35:31;;;;;;;4.30;2.55;;;7.10;99.90;;;;;;6223741;22;20024;-90
2022/05/05 01:37:59;;;;;;;4.07;2.70;;;7.20;99.90;;;;;;6222567;22;20016;-90
2022/05/05 01:40:25;;;;;;;3.28;2.30;;;6.30;99.90;;;;;;6248675;22;20345;-90
2022/05/05 01:42:51;;;;;;;6.63;2.47;;;7.20;99.90;;;;;;6222660;22;20016;-90
2022/05/05 01:45:17;;;;;;;4.00;2.83;;;7.10;99.90;;;;;;6248466;22;20527;-90
2022/05/05 01:47:45;;;;;;;5.30;3.33;;;8.10;99.90;;;;;;6197989;22;20068;-90
2022/05/05 01:50:11;;;;;;;5.13;3.28;;;7.10;99.90;;;;;;6223773;22;20015;-90
2022/05/05 01:52:40;;;;;;;3.43;2.83;;;7.10;99.90;;;;;;6222389;22;20026;-90
2022/05/05 01:55:08;;;;;;;4.97;2.85;;;7.20;99.90;;;;;;6197958;22;20027;-90
2022/05/05 01:57:34;;;;;;;4.88;3.53;;;7.10;99.90;;;;;;6223631;22;20047;-90
2022/05/05 02:00:03;;;;;;;5.50;2.63;;;7.10;99.90;;;;;;6247992;22;20046;-90
2022/05/05 02:02:29;;;;;;;3.53;2.60;;;7.20;99.90;;;;;;6223941;22;20024;-90
2022/05/05 02:04:55;;;;;;;10.23;2.93;;;7.00;99.90;;;;;;6249806;22;20081;-90
2022/05/05 02:07:31;;;;;;;2.90;2.47;;;7.00;99.90;;;;;;6225274;22;20058;-90
2022/05/05 02:10:03;;;;;;;5.82;2.85;;;7.00;99.90;;;;;;6200374;22;20058;-90
2022/05/05 02:12:35;;;;;;;7.30;3.38;;;6.90;99.90;;;;;;6224904;22;20058;-90
2022/05/05 02:15:08;;;;;;;3.38;2.80;;;7.00;99.90;;;;;;6224383;22;20027;-90
2022/05/05 02:17:35;;;;;;;4.57;2.88;;;7.00;99.90;;;;;;6201293;22;20448;-90
2022/05/05 02:20:02;;;;;;;5.50;2.88;;;6.90;99.90;;;;;;6224623;22;20026;-90
2022/05/05 02:22:33;;;;;;;5.55;3.40;;;6.80;99.90;;;;;;6224643;22;20098;-89
2022/05/05 02:24:59;;;;;;;6.70;2.75;;;6.80;99.90;;;;;;6249329;22;20015;-90
2022/05/05 02:27:27;;;;;;;4.17;3.40;;;6.90;99.90;;;;;;6225104;22;20099;-90
2022/05/05 02:29:53;;;;;;;5.72;3.00;;;7.00;99.90;;;;;;6224228;22;20020;-90
2022/05/05 02:32:19;;;;;;;4.73;3.13;;;6.50;99.90;;;;;;6224923;22;20090;-90
2022/05/05 02:34:49;;;;;;;3.85;3.35;;;6.90;99.90;;;;;;6248832;22;20047;-90
2022/05/05 02:40:06;;;;;;;5.35;3.22;;;5.90;99.90;;;;;;6228587;22;20059;-89
2022/05/05 02:42:34;;;;;;;3.88;3.22;;;6.80;99.90;;;;;;6249437;22;20012;-90
2022/05/05 02:45:03;;;;;;;3.10;2.80;;;6.80;99.90;;;;;;6224551;22;20016;-90
2022/05/05 02:47:29;;;;;;;5.50;3.50;;;6.50;99.90;;;;;;6224850;22;20073;-90
2022/05/05 02:49:55;;;;;;;9.50;4.73;;;6.80;99.90;;;;;;6223856;22;20579;-90
2022/05/05 02:52:31;;;;;;;5.57;3.47;;;6.80;99.90;;;;;;6224900;22;20017;-90
2022/05/05 02:55:07;;;;;;;7.15;3.97;;;6.80;99.90;;;;;;6223464;22;20090;-90
2022/05/05 02:57:33;;;;;;;4.07;3.42;;;6.80;99.90;;;;;;6250174;22;20023;-90
2022/05/05 03:00:10;;;;;;;;;;;;;;;;;;;;;
2022/05/05 03:02:36;;;;;;;6.50;3.40;;;6.80;99.90;;;;;;6249268;22;20030;-90
2022/05/05 03:05:02;;;;;;;4.77;3.53;;;6.80;99.90;;;;;;6223054;22;20098;-90
2022/05/05 03:07:33;;;;;;;5.77;3.77;;;6.80;99.90;;;;;;6224052;22;20055;-90
2022/05/05 03:10:03;;;;;;;3.95;2.85;;;6.70;99.90;;;;;;6199590;22;20344;-90
2022/05/05 03:12:33;;;;;;;5.00;3.67;;;6.80;99.90;;;;;;6224495;22;20016;-90
2022/05/05 03:15:07;;;;;;;5.97;3.80;;;6.70;99.90;;;;;;6198465;22;20016;-89
2022/05/05 03:17:35;;;;;;;5.55;3.97;;;6.80;99.90;;;;;;6224559;22;20015;-88
2022/05/05 03:20:04;;;;;;;5.38;3.28;;;6.80;99.90;;;;;;6224278;22;20016;-89
2022/05/05 03:22:30;;;;;;;4.90;3.70;;;6.80;99.90;;;;;;6224438;22;20016;-88
2022/05/05 03:24:56;;;;;;;4.03;3.60;;;6.80;99.90;;;;;;6198849;22;20368;-90
2022/05/05 03:27:24;;;;;;;5.07;4.07;;;6.80;99.90;;;;;;6199243;22;20062;-90
2022/05/05 03:29:55;;;;;;;5.32;3.58;;;6.70;99.90;;;;;;6224052;22;20016;-90
2022/05/05 03:32:29;;;;;;;8.10;3.10;;;6.80;99.90;;;;;;6201090;22;20062;-90
2022/05/05 03:34:58;;;;;;;5.65;3.63;;;6.90;99.90;;;;;;6248674;22;20016;-89
2022/05/05 03:37:28;;;;;;;5.30;3.40;;;7.50;99.90;;;;;;6224123;22;20098;-89
2022/05/05 03:39:56;;;;;;;4.57;3.50;;;6.80;99.90;;;;;;6223730;22;20016;-90
2022/05/05 03:42:22;;;;;;;6.97;3.92;;;6.90;99.90;;;;;;6223850;22;20012;-90
2022/05/05 03:44:48;;;;;;;5.53;3.77;;;6.90;99.90;;;;;;6199085;22;20022;-90
2022/05/05 03:47:14;;;;;;;6.35;4.68;;;7.70;99.90;;;;;;6248751;22;20016;-89
2022/05/05 03:49:40;;;;;;;7.23;4.17;;;7.20;99.90;;;;;;6248631;22;20019;-89
2022/05/05 03:52:13;;;;;;;6.00;3.93;;;6.80;99.90;;;;;;6223878;22;20011;-90
2022/05/05 03:54:42;;;;;;;7.97;3.90;;;6.70;99.90;;;;;;6223960;22;20035;-90
2022/05/05 03:57:10;;;;;;;10.25;3.78;;;6.80;99.90;;;;;;6248802;22;20066;-90
2022/05/05 03:59:36;;;;;;;4.18;3.60;;;6.80;99.90;;;;;;6248312;22;20015;-89
2022/05/05 04:02:02;;;;;;;6.70;4.33;;;6.80;99.90;;;;;;6223621;22;20069;-90
2022/05/05 04:04:28;;;;;;;4.82;3.75;;;7.00;99.90;;;;;;6222799;22;20039;-89
2022/05/05 04:06:56;;;;;;;4.53;3.70;;;6.80;99.90;;;;;;6223831;22;20016;-90
2022/05/05 04:09:29;;;;;;;4.40;4.00;;;6.90;99.90;;;;;;6248697;22;20094;-90
2022/05/05 04:11:55;;;;;;;8.00;3.90;;;6.80;99.90;;;;;;6223176;22;20018;-89
2022/05/05 04:14:31;;;;;;;7.07;5.00;;;6.80;99.90;;;;;;6248758;22;20090;-90
2022/05/05 04:17:00;;;;;;;7.43;4.50;;;6.90;99.90;;;;;;6225124;22;20090;-90
2022/05/05 04:19:26;;;;;;;8.32;4.72;;;6.80;99.90;;;;;;6198701;22;20074;-89
2022/05/05 04:21:54;;;;;;;4.82;3.63;;;6.90;99.90;;;;;;6223831;22;20012;-90
2022/05/05 04:24:28;;;;;;;10.05;3.95;;;6.90;99.90;;;;;;6223365;22;20084;-89
2022/05/05 04:26:54;;;;;;;6.18;4.80;;;7.10;99.90;;;;;;6222859;22;20019;-89
2022/05/05 04:29:20;;;;;;;5.70;3.73;;;7.00;99.90;;;;;;6223221;22;20058;-89
2022/05/05 04:32:06;;;;;;;4.93;4.00;;;6.90;99.90;;;;;;6248305;22;20347;-90
2022/05/05 04:34:34;;;;;;;5.85;3.83;;;7.10;99.90;;;;;;6222619;22;20419;-89
2022/05/05 04:37:00;;;;;;;7.75;4.40;;;7.00;99.90;;;;;;6248535;22;20016;-89
2022/05/05 04:39:26;;;;;;;4.27;3.63;;;7.00;99.90;;;;;;6248636;22;20070;-89
2022/05/05 04:41:52;;;;;;;6.20;4.43;;;7.10;99.90;;;;;;6223249;22;20022;-89
2022/05/05 04:44:17;;;;;;;5.40;3.80;;;7.10;99.90;;;;;;6222594;22;20016;-88
2022/05/05 04:46:43;;;;;;;8.73;4.57;;;6.80;99.90;;;;;;6222976;22;20348;-89
2022/05/05 04:49:14;;;;;;;7.13;4.77;;;7.10;99.90;;;;;;6247804;22;20091;-89
2022/05/05 04:51:45;;;;;;;5.82;3.85;;;7.20;99.90;;;;;;6223868;22;20317;-89
2022/05/05 04:54:15;;;;;;;4.95;4.35;;;7.20;99.90;;;;;;6198434;22;20099;-90
2022/05/05 04:56:43;;;;;;;4.93;4.00;;;7.20;99.90;;;;;;6222803;22;20027;-89
2022/05/05 04:59:10;;;;;;;7.70;4.85;;;7.30;99.90;;;;;;6223549;22;20016;-89
2022/05/05 05:01:39;;;;;;;4.22;3.28;;;7.20;99.90;;;;;;6248285;22;20424;-89
2022/05/05 05:04:07;;;;;;;5.30;3.10;;;7.20;99.90;;;;;;6223426;22;20042;-90
2022/05/05 05:06:34;;;;;;;3.95;3.55;;;7.90;99.90;;;;;;6223225;22;20015;-89
2022/05/05 05:09:02;;;;;;;4.78;3.53;;;7.20;99.90;;;;;;6223477;22;20030;-89
2022/05/05 05:11:28;;;;;;;4.47;3.72;;;8.00;99.90;;;;;;6222739;22;20019;-90
2022/05/05 05:14:03;;;;;;;8.50;4.40;;;7.50;99.90;;;;;;6223789;22;20019;-90
2022/05/05 05:16:29;;;;;;;3.67;3.28;;;7.50;99.90;;;;;;6222985;22;20011;-89
2022/05/05 05:18:55;;;;;;;7.47;4.73;;;7.60;99.90;;;;;;6223323;22;20062;-89
2022/05/05 05:21:24;;;;;;;6.50;4.95;;;7.60;99.90;;;;;;6247231;22;20020;-90
2022/05/05 05:23:52;;;;;;;7.63;3.53;;;7.70;99.90;;;;;;6223086;22;20020;-90
2022/05/05 05:26:20;;;;;;;5.25;3.97;;;7.70;99.90;;;;;;6222509;22;20072;-90
2022/05/05 05:28:46;;;;;;;9.80;4.88;;;7.80;99.90;;;;;;6197873;22;20503;-90
2022/05/05 05:31:11;;;;;;;6.03;4.10;;;7.90;99.90;;;;;;6222730;22;20020;-90
2022/05/05 05:33:50;;;;;;;;;;;;;;;;;;;;;
2022/05/05 05:36:19;;;;;;;8.68;4.45;;;8.20;99.90;;;;;;6247601;22;20034;-89
2022/05/05 05:38:50;;;;;;;8.57;4.38;;;8.40;99.90;;;;;;6250334;22;20455;-89
2022/05/05 05:41:16;;;;;;;5.65;3.90;;;8.60;99.90;;;;;;6249659;22;20015;-90
2022/05/05 05:43:47;;;;;;;7.07;3.60;;;8.50;99.90;;;;;;6225272;22;20077;-89
2022/05/05 05:46:13;;;;;;;7.22;4.88;;;8.50;99.90;;;;;;6226825;22;20022;-91
2022/05/05 05:49:01;;;;;;;6.43;4.47;;;7.70;99.90;;;;;;6226828;22;20347;-89
2022/05/05 05:51:27;;;;;;;4.25;3.83;;;8.70;99.90;;;;;;6203527;22;20022;-89
2022/05/05 05:53:55;;;;;;;4.77;3.40;;;8.90;99.90;;;;;;6200001;22;20015;-88
2022/05/05 05:56:21;;;;;;;6.70;3.90;;;8.80;99.90;;;;;;6249701;22;20090;-88
2022/05/05 05:58:47;;;;;;;5.67;4.07;;;9.00;99.90;;;;;;6250376;22;20048;-90
2022/05/05 06:03:53;;;;;;;4.67;4.20;;;9.00;99.90;;;;;;6225414;22;20087;-86
2022/05/05 06:04:08;;;;;;;5.57;4.18;;;8.50;99.90;;;;;;6249288;22;20020;-86
2022/05/05 06:06:35;;;;;;;6.97;4.38;;;9.20;99.90;;;;;;6225239;22;20054;-89
2022/05/05 06:09:05;;;;;;;10.35;4.10;;;9.30;99.90;;;;;;6224911;22;20019;-90
2022/05/05 06:11:39;;;;;;;7.63;4.43;;;9.30;99.90;;;;;;6200174;22;20020;-90
2022/05/05 06:17:17;;;;;;;7.65;3.55;;;9.50;99.90;;;;;;6250784;22;20019;-90
2022/05/05 06:19:57;;;;;;;;;;;;;;;;;;;;;
2022/05/05 06:22:39;;;;;;;4.20;3.80;;;9.70;99.90;;;;;;6227681;22;20019;-91
2022/05/05 06:25:08;;;;;;;4.22;3.33;;;9.80;99.90;;;;;;6224883;22;20016;-89
2022/05/05 06:27:34;;;;;;;5.60;3.90;;;9.10;99.90;;;;;;6224278;22;20031;-85
2022/05/05 06:30:31;;;;;;;;;;;;;;;;;;;;;
2022/05/05 06:33:09;;;;;;;;;;;;;;;;;;;;;
2022/05/05 06:35:46;;;;;;;11.55;3.72;;;10.10;99.90;;;;;;6227971;22;20016;-96
2022/05/05 06:38:22;;;;;;;7.13;3.80;;;10.20;99.90;;;;;;6226507;22;20019;-94
2022/05/05 06:41:02;;;;;;;10.95;4.93;;;10.40;99.90;;;;;;6181862;22;20039;-95
2022/05/05 06:43:29;;;;;;;6.95;4.38;;;10.50;99.90;;;;;;6224912;22;20020;-91
2022/05/05 06:46:08;;;;;;;;;;;;;;;;;;;;;
2022/05/05 06:48:46;;;;;;;11.50;4.00;;;10.60;99.90;;;;;;6249400;22;20047;-94
2022/05/05 06:51:14;;;;;;;;;;;10.30;99.90;;;;;;6225425;22;20016;-93
2022/05/05 06:53:49;;;;;;;;;;;11.00;99.90;;;;;;6224540;22;19919;-95
2022/05/05 06:56:46;;;;;;;4.75;3.92;;;11.10;99.90;;;;;;6225316;22;19922;-94
2022/05/05 06:59:19;;;;;;;5.60;3.92;;;11.10;99.90;;;;;;6224693;22;20099;-95
2022/05/05 07:02:36;;;;;;;;;;;;;;;;;;;;;
2022/05/05 07:05:33;;;;;;;7.80;3.95;;;11.40;99.90;;;;;;6237025;22;20051;-89
2022/05/05 07:08:12;;;;;;;4.00;3.60;;;11.30;99.90;;;;;;6224448;22;20155;-93
2022/05/05 07:10:53;;;;;;;9.98;4.22;;;11.60;99.90;;;;;;6225310;22;20388;-94
2022/05/05 07:13:40;;;;;;;;;;;;;;;;;;;;;
2022/05/05 07:16:08;;;;;;;4.55;3.58;;;11.60;99.90;;;;;;6250898;22;20011;-94
2022/05/05 07:18:34;;;;;;;8.05;4.18;;;11.60;99.90;;;;;;6249563;22;20047;-94
2022/05/05 07:21:06;;;;;;;5.30;3.67;;;11.80;99.90;;;;;;6224258;22;20026;-94
2022/05/05 07:23:39;;;;;;;4.68;3.53;;;11.80;99.90;;;;;;6224137;22;20257;-94
2022/05/05 07:26:06;;;;;;;4.30;3.33;;;11.90;99.90;;;;;;6201186;22;20020;-94
2022/05/05 07:28:48;;;;;;;4.97;3.15;;;12.10;99.90;;;;;;6224965;22;20023;-94
2022/05/05 07:31:14;;;;;;;4.50;3.25;;;12.20;99.90;;;;;;6223091;22;20015;-91
2022/05/05 07:33:40;;;;;;;3.47;3.17;;;12.10;99.90;;;;;;6223632;22;20462;-93
2022/05/05 07:36:09;;;;;;;4.90;3.70;;;12.30;99.90;;;;;;6249255;22;20069;-92
2022/05/05 07:38:35;;;;;;;8.53;3.27;;;12.30;99.90;;;;;;6249294;22;20020;-93
2022/05/05 07:41:03;;;;;;;4.57;2.88;;;12.40;99.90;;;;;;6249061;22;20050;-91
2022/05/05 07:43:32;;;;;;;4.95;3.08;;;12.60;99.90;;;;;;6248658;22;20340;-91
2022/05/05 07:46:00;;;;;;;3.78;3.08;;;13.10;99.90;;;;;;6223756;22;20095;-91
2022/05/05 07:48:26;;;;;;;3.25;2.70;;;12.70;99.90;;;;;;6199241;22;20098;-91
2022/05/05 07:50:52;;;;;;;3.50;2.97;;;12.80;99.90;;;;;;6247882;22;20105;-92
2022/05/05 07:53:20;;;;;;;4.20;2.80;;;12.90;99.90;;;;;;6223873;22;20020;-92
2022/05/05 07:55:46;;;;;;;4.40;2.42;;;13.00;99.90;;;;;;6198828;22;20019;-92
2022/05/05 07:58:12;;;;;;;5.65;2.78;;;13.10;99.90;;;;;;6249314;22;20011;-92
2022/05/05 08:00:38;;;;;;;5.37;3.80;;;13.20;99.90;;;;;;6248460;22;20012;-93
2022/05/05 08:03:13;;;;;;;4.05;2.78;;;13.20;99.90;;;;;;6249163;22;20011;-92
2022/05/05 08:05:41;;;;;;;4.43;2.40;;;13.30;99.90;;;;;;6223476;22;20020;-93
2022/05/05 08:08:07;;;;;;;5.75;2.17;;;13.30;99.90;;;;;;6248962;22;20012;-92
2022/05/05 08:10:38;;;;;;;3.67;2.63;;;13.40;99.90;;;;;;6222969;22;20466;-91
2022/05/05 08:13:06;;;;;;;3.90;3.47;;;13.60;99.90;;;;;;6199525;22;20011;-92
2022/05/05 08:15:40;;;;;;;3.40;2.40;;;13.70;99.90;;;;;;6224022;22;20039;-91
2022/05/05 08:18:06;;;;;;;5.97;2.53;;;13.30;99.90;;;;;;6224097;22;20074;-91
2022/05/05 08:20:37;;;;;;;3.72;2.20;;;13.70;99.90;;;;;;6224191;22;20069;-92
2022/05/05 08:23:03;;;;;;;5.65;2.10;;;13.80;99.90;;;;;;6249621;22;20012;-93
2022/05/05 08:28:29;;;;;;;4.53;2.42;;;13.70;99.90;;;;;;6249380;22;20026;-93
2022/05/05 08:30:56;;;;;;;4.82;3.55;;;13.90;99.90;;;;;;6201540;22;20012;-93
2022/05/05 08:33:27;;;;;;;3.83;2.40;;;14.00;99.90;;;;;;6224463;22;20098;-93
2022/05/05 08:35:56;;;;;;;4.28;2.03;;;14.20;99.90;;;;;;6200167;22;20016;-93
2022/05/05 08:38:23;;;;;;;3.13;2.05;;;14.30;99.90;;;;;;6226109;22;20016;-93
2022/05/05 08:40:49;;;;;;;;;;;14.40;99.90;;;;;;6250445;22;20322;-93
2022/05/05 08:43:15;;;;;;;4.95;2.00;;;14.60;99.90;;;;;;6239043;22;19922;-91
2022/05/05 08:45:41;;;;;;;4.50;2.50;;;14.70;99.90;;;;;;6240004;22;20016;-93
2022/05/05 08:48:12;;;;;;;2.65;2.30;;;14.90;99.90;;;;;;6233041;22;20026;-93
2022/05/05 08:50:51;;;;;;;3.53;1.98;;;14.90;99.90;;;;;;6223629;22;20337;-91
2022/05/05 08:53:22;;;;;;;4.00;2.97;;;14.90;99.90;;;;;;6224556;22;20022;-93
2022/05/05 08:55:48;;;;;;;2.35;1.95;;;15.00;99.90;;;;;;6224090;22;20387;-93
2022/05/05 08:58:17;;;;;;;3.35;1.70;;;15.10;99.90;;;;;;6224240;22;20019;-93
2022/05/05 09:00:55;;;;;;;2.90;1.95;;;15.20;99.90;;;;;;6248539;22;20024;-90
2022/05/05 09:03:24;;;;;;;3.95;2.30;;;15.30;99.90;;;;;;6200533;22;20081;-90
2022/05/05 09:05:52;;;;;;;4.28;1.98;;;15.00;99.90;;;;;;6225341;22;20020;-94
2022/05/05 09:08:44;;;;;;;2.45;2.25;;;15.60;99.90;;;;;;6225281;22;20019;-93
2022/05/05 09:11:18;;;;;;;5.75;2.50;;;15.80;99.90;;;;;;6249127;22;20012;-89
2022/05/05 09:13:44;;;;;;;3.22;2.17;;;16.00;99.90;;;;;;6250613;22;20015;-90
2022/05/05 09:16:42;;;;;;;5.32;2.33;;;16.20;99.90;;;;;;6251756;22;20109;-93
2022/05/05 09:19:29;;;;;;;2.92;1.95;;;16.30;99.90;;;;;;6203878;22;20043;-93
2022/05/05 09:26:01;;;;;;;6.20;1.98;;;16.50;99.90;;;;;;6250360;22;20352;-93
2022/05/05 09:31:50;;;;;;;4.60;2.53;;;17.10;99.70;;;;;;6256852;22;20023;-92
2022/05/05 09:34:27;;;;;;;2.88;2.50;;;16.90;99.90;;;;;;6250445;22;20012;-92
2022/05/05 09:37:25;;;;;;;4.55;2.55;;;17.20;98.90;;;;;;6231455;22;20023;-93
2022/05/05 09:40:02;;;;;;;3.97;2.28;;;17.40;98.70;;;;;;6225674;22;20023;-93
2022/05/05 09:42:40;;;;;;;3.03;2.60;;;17.60;97.70;;;;;;6226050;22;20011;-92
2022/05/05 09:45:26;;;;;;;3.45;2.50;;;17.70;98.20;;;;;;6225882;22;20061;-92
2022/05/05 09:48:22;;;;;;;2.40;2.20;;;17.70;98.10;;;;;;6225433;22;20019;-91
2022/05/05 09:50:50;;;;;;;3.22;2.33;;;17.70;97.50;;;;;;6183837;22;20016;-93
2022/05/05 10:00:03;;;;;;;6.07;3.08;;;17.80;95.60;;;;;;6193957;22;20166;-93
2022/05/05 10:08:47;;;;;;;3.97;2.47;;;17.30;94.70;;;;;;6237336;22;20024;-94
2022/05/05 10:11:35;;;;;;;2.05;1.85;;;18.40;95.20;;;;;;6202190;22;20034;-94
2022/05/05 10:17:34;;;;;;;5.85;2.78;;;17.80;94.50;;;;;;6248720;22;20041;-94
2022/05/05 10:20:49;;;;;;;4.28;3.03;;;18.70;93.10;;;;;;6225235;22;20020;-95
2022/05/05 10:23:40;;;;;;;7.75;2.85;;;18.90;92.70;;;;;;6224108;22;20016;-95
2022/05/05 10:26:27;;;;;;;;;;;;;;;;;;;;;
2022/05/05 10:29:30;;;;;;;;;;;;;;;;;;;;;
2022/05/05 10:32:26;;;;;;;4.85;2.47;;;18.70;91.60;;;;;;6230817;22;20016;-95
2022/05/05 10:35:04;;;;;;;4.40;2.92;;;18.70;91.30;;;;;;6196512;22;20023;-95
2022/05/05 10:38:29;;;;;;;;;;;;;;;;;;;;;
2022/05/05 10:41:38;;;;;;;3.60;2.40;;;19.40;89.20;;;;;;6241689;22;20094;-94
2022/05/05 10:44:19;;;;;;;4.25;3.05;;;19.50;88.40;;;;;;6224968;22;20023;-95
2022/05/05 10:50:38;;;;;;;2.67;2.30;;;19.50;88.10;;;;;;6239168;22;20016;-95
2022/05/05 10:53:14;;;;;;;2.70;2.30;;;19.60;86.40;;;;;;6222366;22;20066;-93
2022/05/05 10:55:55;;;;;;;4.10;2.80;;;19.80;88.90;;;;;;6224127;22;20016;-89
2022/05/05 10:59:01;;;;;;;5.50;2.75;;;19.80;87.30;;;;;;6249338;22;20019;-90
2022/05/05 11:01:30;;;;;;;2.65;2.45;;;19.90;84.20;;;;;;6248440;22;20047;-92
2022/05/05 11:04:24;;;;;;;5.95;2.53;;;20.00;86.60;;;;;;6249249;22;20029;-93
2022/05/05 11:07:30;;;;;;;4.72;2.60;;;20.10;80.40;;;;;;6214677;22;20047;-88
2022/05/05 11:10:07;;;;;;;3.55;2.65;;;19.40;80.60;;;;;;6224134;22;20019;-92
2022/05/05 11:12:37;;;;;;;3.63;2.03;;;20.10;85.00;;;;;;6224581;22;20016;-90
2022/05/05 11:24:08;;;;;;;3.55;2.38;;;20.60;80.30;;;;;;6250310;22;20016;-92
2022/05/05 11:26:44;;;;;;;3.90;2.38;;;20.60;78.10;;;;;;6225161;22;20374;-91
2022/05/05 11:29:16;;;;;;;4.50;2.42;;;20.00;78.90;;;;;;6225146;22;20019;-91
2022/05/05 11:32:21;;;;;;;2.35;1.60;;;20.80;77.00;;;;;;6249845;22;20024;-91
2022/05/05 11:34:53;;;;;;;2.88;1.90;;;20.70;77.20;;;;;;6209650;22;20015;-94
2022/05/05 11:37:35;;;;;;;4.03;2.53;;;20.60;78.00;;;;;;6228480;22;20074;-91
2022/05/05 11:40:11;;;;;;;1.90;1.55;;;20.60;78.10;;;;;;6224158;22;20019;-95
2022/05/05 11:44:14;;;;;;;;;;;20.60;75.70;;;;;;6250812;22;20012;-92
2022/05/05 11:45:38;;;;;;;;;;;;;;;;;;;;;
2022/05/05 11:48:19;;;;;;;3.47;2.28;;;20.00;77.40;;;;;;6249654;22;20043;-93
2022/05/05 11:50:45;;;;;;;5.43;1.88;;;20.70;74.00;;;;;;6199060;22;20019;-86
2022/05/05 11:53:18;;;;;;;3.22;1.63;;;20.60;75.50;;;;;;6249243;22;20028;-89
2022/05/05 11:55:48;;;;;;;2.38;2.17;;;20.40;74.90;;;;;;6249347;22;20018;-93
2022/05/05 12:01:36;;;;;;;5.50;2.95;;;21.10;75.20;;;;;;6275838;22;20082;-94
2022/05/05 12:03:58;;;;;;;2.28;2.05;;;21.40;73.70;;;;;;6249725;22;20016;-93
2022/05/05 12:06:27;;;;;;;2.65;2.30;;;21.50;74.30;;;;;;6223411;22;20383;-93
2022/05/05 12:09:00;;;;;;;4.03;2.42;;;21.70;73.50;;;;;;6249679;22;20024;-93
2022/05/05 12:11:29;;;;;;;4.93;2.42;;;21.80;72.30;;;;;;6222762;22;20019;-93
2022/05/05 12:14:10;;;;;;;2.67;2.35;;;21.80;71.00;;;;;;6249028;22;20091;-93
2022/05/05 12:16:37;;;;;;;3.92;2.35;;;21.90;71.40;;;;;;6224511;22;20019;-93
2022/05/05 12:19:14;;;;;;;3.35;2.20;;;21.90;71.30;;;;;;6248826;22;20019;-92
2022/05/05 12:21:57;;;;;;;4.40;2.70;;;22.00;70.10;;;;;;6248830;22;20016;-92
2022/05/05 12:24:30;;;;;;;2.72;2.00;;;22.10;70.10;;;;;;6223826;22;20103;-91
2022/05/05 12:27:08;;;;;;;3.45;2.85;;;22.10;70.10;;;;;;6249005;22;20058;-91
2022/05/05 12:29:45;;;;;;;5.68;2.38;;;22.20;69.50;;;;;;6223978;22;20039;-92
2022/05/05 12:32:15;;;;;;;3.00;2.50;;;22.40;69.40;;;;;;6248430;22;20016;-89
2022/05/05 12:34:50;;;;;;;3.50;1.98;;;22.50;68.80;;;;;;6249715;22;20019;-88
2022/05/05 12:37:34;;;;;;;;;;;;;;;;;;;;;
2022/05/05 12:43:13;;;;;;;3.17;2.30;;;22.60;68.70;;;;;;6235655;22;20015;-89
2022/05/05 12:45:49;;;;;;;2.70;2.50;;;22.70;66.70;;;;;;6249589;22;20018;-89
2022/05/05 12:48:53;;;;;;;2.95;2.00;;;22.70;68.40;;;;;;6184216;23;20031;-89
2022/05/05 12:51:39;;;;;;;4.40;2.90;;;22.70;67.70;;;;;;6224355;22;20058;-89
2022/05/05 13:00:12;;;;;;;6.35;1.98;;;22.30;66.90;;;;;;6230292;22;20065;-89
2022/05/05 13:07:33;;;;;;;2.25;1.90;;;21.60;64.00;;;;;;6250252;22;20020;-89
2022/05/05 13:13:47;;;;;;;5.22;1.92;;;21.50;65.50;;;;;;6261651;22;20350;-89
2022/05/05 13:16:19;;;;;;;3.45;1.50;;;21.90;66.00;;;;;;6224984;22;20027;-89
2022/05/05 13:18:56;;;;;;;3.03;2.10;;;22.00;66.50;;;;;;6223874;22;20440;-89
2022/05/05 13:21:43;;;;;;;;;;;;;;;;;;;;;
2022/05/05 13:24:15;;;;;;;2.35;2.15;;;22.30;67.10;;;;;;6227509;22;20043;-89
2022/05/05 13:26:54;;;;;;;3.00;1.95;;;22.50;67.10;;;;;;6201805;22;20022;-89
2022/05/05 13:32:24;;;;;;;;;;;;;;;;;;;;;
2022/05/05 13:34:57;;;;;;;2.50;1.95;;;22.30;65.60;;;;;;6249576;22;20019;-89
2022/05/05 13:37:52;;;;;;;2.33;2.00;;;22.30;65.40;;;;;;6224459;22;20024;-89
2022/05/05 13:44:31;;;;;;;2.65;1.83;;;22.30;65.20;;;;;;6276708;22;20022;-89
2022/05/05 13:47:01;;;;;;;2.92;2.17;;;22.10;66.60;;;;;;6230966;22;20016;-88
2022/05/05 13:49:47;;;;;;;2.55;2.35;;;22.00;66.60;;;;;;6225906;22;20011;-88
2022/05/05 13:52:20;;;;;;;3.20;2.33;;;21.10;65.80;;;;;;6250795;22;20513;-89
2022/05/05 13:54:57;;;;;;;2.92;1.88;;;21.90;66.40;;;;;;6225121;22;20016;-89
2022/05/05 13:57:32;;;;;;;3.42;2.60;;;21.90;66.30;;;;;;6201135;22;20016;-89
2022/05/05 14:00:10;;;;;;;2.58;2.38;;;22.00;65.90;;;;;;6251429;22;20096;-89
2022/05/05 14:02:36;;;;;;;4.28;2.40;;;22.00;66.00;;;;;;6225263;22;20026;-89
2022/05/05 14:05:18;;;;;;;3.15;2.53;;;22.10;65.90;;;;;;6228195;22;20062;-89
2022/05/05 14:14:50;;;;;;;4.32;2.67;;;22.80;64.10;;;;;;6241510;22;20014;-89
2022/05/05 14:17:17;;;;;;;4.07;2.13;;;22.70;64.00;;;;;;6226101;22;20077;-89
2022/05/05 14:19:44;;;;;;;4.07;2.00;;;22.60;63.80;;;;;;6177600;22;20016;-89
2022/05/05 14:22:10;;;;;;;2.58;2.28;;;22.50;63.90;;;;;;6200807;22;20008;-89
2022/05/05 14:24:37;;;;;;;3.30;2.17;;;22.40;64.00;;;;;;6226548;22;20016;-89
2022/05/05 14:30:39;;;;;;;4.47;2.00;;;22.20;63.60;;;;;;6278206;22;19910;-89
2022/05/05 14:36:49;;;;;;;3.72;2.20;;;22.00;63.60;;;;;;6278092;22;20010;-89
2022/05/05 14:39:17;;;;;;;2.63;2.42;;;21.80;64.30;;;;;;6200289;22;20016;-89
2022/05/05 14:41:43;;;;;;;3.78;2.45;;;21.70;64.40;;;;;;6176058;22;20068;-89
2022/05/05 14:44:09;;;;;;;5.00;2.35;;;21.50;64.50;;;;;;6251498;22;20099;-89
2022/05/05 14:46:34;;;;;;;9.77;3.05;;;21.30;64.70;;;;;;6200748;22;20020;-89
2022/05/05 14:49:03;;;;;;;6.18;2.75;;;21.20;65.40;;;;;;6225604;22;20069;-89
2022/05/05 14:51:33;;;;;;;3.97;2.13;;;21.20;65.80;;;;;;6203532;22;20023;-89
2022/05/05 14:57:57;;;;;;;2.30;1.92;;;20.90;65.60;;;;;;6277996;22;20010;-89
2022/05/05 15:08:38;;;;;;;2.78;1.55;;;20.80;67.20;;;;;;6277735;22;20006;-89
2022/05/05 15:11:31;;;;;;;2.72;2.10;;;20.60;67.00;;;;;;6198174;22;20019;-89
2022/05/05 15:14:48;;;;;;;3.40;2.47;;;20.60;67.30;;;;;;6168288;23;20080;-89
2022/05/05 15:17:17;;;;;;;5.35;2.88;;;20.60;68.20;;;;;;6134590;23;20024;-89
2022/05/05 15:19:48;;;;;;;3.45;2.13;;;20.40;67.50;;;;;;6135161;23;20075;-89
2022/05/05 15:22:16;;;;;;;4.50;2.00;;;20.40;67.90;;;;;;6134306;23;20017;-89
2022/05/05 15:28:31;;;;;;;4.35;2.15;;;20.20;69.60;;;;;;6184208;23;20011;-89
2022/05/05 15:31:21;;;;;;;;;;;;;;;;;;;;;
2022/05/05 15:37:48;;;;;;;;;;;;;;;;;;;;;
2022/05/05 15:40:25;;;;;;;3.30;2.22;;;20.10;69.70;;;;;;6250618;22;20086;-89